AKT weather

RAF Akrotiri
Akrotiri, United Kingdom

Public forecast

Using degrees Celsius for public forecast. Weather courtesy of forecast.io.

Current aviation weather report (METAR) for RAF Akrotiri

Retrieved 2019/10/17 02:20 UTC (0 seconds ago):

LCRA 170220Z 28002KT CAVOK 21/17 Q1014 NOSIG

Aviation forecast (TAF) for RAF Akrotiri

Retrieved 2019-10-17 03:38 UTC (0 seconds ago):

TAF LCRA 170119Z 1703/1721 26010KT 9999 FEW050 TEMPO 1703/1706 VRB02KT